createdAt,value
2019-03-19T00:02:12.390Z,96.10
2019-03-19T00:04:39.956Z,95.80
2019-03-19T00:07:07.450Z,95.80
2019-03-19T00:09:34.966Z,95.80
2019-03-19T00:12:02.943Z,95.60
2019-03-19T00:14:30.906Z,95.60
2019-03-19T00:16:58.754Z,95.80
2019-03-19T00:19:26.170Z,96.10
2019-03-19T00:21:53.725Z,96.10
2019-03-19T00:24:50.127Z,96.10
2019-03-19T00:27:17.752Z,96.20
2019-03-19T00:29:46.094Z,96.30
2019-03-19T00:32:14.477Z,96.50
2019-03-19T00:34:42.616Z,96.50
2019-03-19T00:37:09.964Z,96.60
2019-03-19T00:39:38.670Z,96.70
2019-03-19T00:42:06.195Z,96.70
2019-03-19T00:44:33.668Z,96.80
2019-03-19T00:47:01.154Z,96.90
2019-03-19T00:49:31.487Z,96.90
2019-03-19T00:51:58.974Z,96.80
2019-03-19T00:54:26.812Z,96.80
2019-03-19T00:56:54.678Z,96.90
2019-03-19T00:59:22.333Z,96.80
2019-03-19T01:01:49.985Z,96.80
2019-03-19T01:04:17.653Z,96.90
2019-03-19T01:06:45.173Z,97.00
2019-03-19T01:09:13.015Z,96.80
2019-03-19T01:11:40.896Z,97.00
2019-03-19T01:14:08.809Z,97.00
2019-03-19T01:16:36.680Z,97.00
2019-03-19T01:19:04.381Z,97.00
2019-03-19T01:24:36.925Z,97.00
2019-03-19T01:27:04.411Z,97.10
2019-03-19T01:29:31.794Z,97.20
2019-03-19T01:31:59.318Z,97.30
2019-03-19T01:34:26.897Z,97.30
2019-03-19T01:36:54.368Z,97.40
2019-03-19T01:39:21.726Z,97.60
2019-03-19T01:41:49.231Z,97.60
2019-03-19T01:44:16.711Z,97.30
2019-03-19T01:46:44.292Z,97.40
2019-03-19T01:49:11.571Z,97.60
2019-03-19T01:51:39.170Z,97.50
2019-03-19T01:54:06.773Z,97.50
2019-03-19T01:56:34.321Z,97.60
2019-03-19T01:59:01.785Z,97.60
2019-03-19T02:01:29.377Z,97.70
2019-03-19T02:03:57.003Z,97.80
2019-03-19T02:06:24.804Z,98.20
2019-03-19T02:08:52.233Z,97.90
2019-03-19T02:11:19.651Z,98.00
2019-03-19T02:13:47.302Z,98.00
2019-03-19T02:16:15.018Z,98.00
2019-03-19T02:18:42.540Z,98.00
2019-03-19T02:21:10.081Z,98.20
2019-03-19T02:23:37.582Z,98.20
2019-03-19T02:26:15.661Z,98.20
2019-03-19T02:28:34.399Z,98.10
2019-03-19T02:31:01.945Z,98.10
2019-03-19T02:33:29.532Z,98.10
2019-03-19T02:35:56.980Z,98.20
2019-03-19T02:38:24.468Z,98.20
2019-03-19T02:40:52.174Z,98.20
2019-03-19T02:43:22.717Z,98.20
2019-03-19T02:45:49.185Z,98.20
2019-03-19T02:48:16.825Z,98.70
2019-03-19T02:50:44.228Z,98.20
2019-03-19T02:53:11.708Z,98.20
2019-03-19T02:55:39.169Z,98.20
2019-03-19T02:58:06.563Z,98.20
2019-03-19T03:00:34.841Z,98.20
2019-03-19T03:03:02.573Z,98.20
2019-03-19T03:05:30.100Z,98.20
2019-03-19T03:07:57.675Z,98.20
2019-03-19T03:10:25.433Z,98.10
2019-03-19T03:12:52.980Z,98.10
2019-03-19T03:15:20.711Z,98.20
2019-03-19T03:17:48.164Z,98.30
2019-03-19T03:20:16.676Z,98.20
2019-03-19T03:22:44.316Z,98.20
2019-03-19T03:25:12.237Z,98.30
2019-03-19T03:27:39.937Z,98.30
2019-03-19T03:30:10.043Z,98.40
2019-03-19T03:32:37.471Z,98.30
2019-03-19T03:35:05.504Z,98.30
2019-03-19T03:37:33.022Z,98.30
2019-03-19T03:40:00.558Z,98.30
2019-03-19T03:42:28.348Z,98.30
2019-03-19T03:44:55.851Z,98.30
2019-03-19T03:47:23.293Z,98.30
2019-03-19T03:49:50.691Z,98.30
2019-03-19T03:52:18.136Z,98.20
2019-03-19T03:54:45.598Z,98.20
2019-03-19T03:57:12.940Z,98.10
2019-03-19T03:59:43.421Z,98.20
2019-03-19T04:02:10.988Z,98.20
2019-03-19T04:04:38.425Z,98.30
2019-03-19T04:07:05.924Z,98.20
2019-03-19T04:09:33.483Z,98.20
2019-03-19T04:12:00.955Z,98.20
2019-03-19T04:14:28.291Z,98.30
2019-03-19T04:16:55.925Z,98.40
2019-03-19T04:19:24.079Z,98.50
2019-03-19T04:21:51.601Z,98.50
2019-03-19T04:24:19.068Z,98.50
2019-03-19T04:26:47.339Z,98.50
2019-03-19T04:29:14.762Z,98.50
2019-03-19T04:31:42.823Z,98.40
2019-03-19T04:34:11.120Z,98.20
2019-03-19T04:36:38.506Z,98.30
2019-03-19T04:39:07.628Z,98.30
2019-03-19T04:41:36.837Z,98.20
2019-03-19T04:44:04.697Z,98.20
2019-03-19T04:46:32.120Z,98.30
2019-03-19T04:48:59.638Z,98.40
2019-03-19T04:51:27.072Z,98.50
2019-03-19T04:53:54.490Z,98.50
2019-03-19T04:56:21.910Z,98.60
2019-03-19T04:58:49.481Z,98.60
2019-03-19T05:01:17.578Z,98.60
2019-03-19T05:03:47.081Z,98.60
2019-03-19T05:06:14.505Z,98.80
2019-03-19T05:08:41.863Z,98.80
2019-03-19T05:11:09.301Z,98.80
2019-03-19T05:13:36.675Z,98.90
2019-03-19T05:16:04.220Z,98.90
2019-03-19T05:18:31.689Z,98.90
2019-03-19T05:20:59.423Z,99.30
2019-03-19T05:23:26.726Z,99.40
2019-03-19T05:25:54.118Z,99.10
2019-03-19T05:28:23.558Z,99.00
2019-03-19T05:30:50.879Z,99.10
2019-03-19T05:33:19.482Z,98.80
2019-03-19T05:35:47.748Z,98.60
2019-03-19T05:38:15.148Z,98.50
2019-03-19T05:40:42.823Z,98.50
2019-03-19T05:43:10.236Z,98.50
2019-03-19T05:45:37.804Z,98.40
2019-03-19T05:48:05.478Z,98.20
2019-03-19T05:50:32.797Z,98.20
2019-03-19T05:53:00.355Z,98.10
2019-03-19T05:55:27.907Z,98.00
2019-03-19T05:57:55.243Z,97.90
2019-03-19T06:00:24.246Z,97.70
2019-03-19T06:02:53.038Z,97.70
2019-03-19T06:05:21.379Z,97.60
2019-03-19T06:07:51.882Z,97.50
2019-03-19T06:10:19.235Z,97.30
2019-03-19T06:12:46.725Z,97.00
2019-03-19T06:15:16.105Z,96.60
2019-03-19T06:17:43.645Z,96.40
2019-03-19T06:20:11.678Z,96.10
2019-03-19T06:22:40.963Z,95.90
2019-03-19T06:25:08.801Z,95.60
2019-03-19T06:27:36.134Z,95.30
2019-03-19T06:30:06.696Z,94.90
2019-03-19T06:32:34.834Z,94.20
2019-03-19T06:35:02.566Z,93.60
2019-03-19T06:38:31.704Z,93.10
2019-03-19T06:41:00.043Z,92.60
2019-03-19T06:43:29.435Z,91.50
2019-03-19T06:45:57.351Z,91.10
2019-03-19T06:48:24.710Z,90.60
2019-03-19T06:50:52.370Z,90.00
2019-03-19T06:53:19.816Z,88.70
2019-03-19T06:55:47.482Z,85.80
2019-03-19T06:58:14.938Z,83.60
2019-03-19T07:00:42.499Z,82.00
2019-03-19T07:03:10.028Z,80.90
2019-03-19T07:05:37.718Z,79.60
2019-03-19T07:08:05.313Z,76.90
2019-03-19T07:10:33.171Z,74.00
2019-03-19T07:13:00.775Z,72.80
2019-03-19T07:15:28.341Z,71.10
2019-03-19T07:17:56.579Z,69.90
2019-03-19T07:20:23.927Z,67.90
2019-03-19T07:22:51.292Z,67.40
2019-03-19T07:25:18.662Z,66.60
2019-03-19T07:27:46.273Z,65.00
2019-03-19T07:30:15.531Z,63.70
2019-03-19T07:32:43.279Z,62.40
2019-03-19T07:35:11.064Z,60.40
2019-03-19T07:37:39.778Z,61.30
2019-03-19T07:40:10.012Z,59.10
2019-03-19T07:42:37.448Z,57.90
2019-03-19T07:45:07.342Z,56.90
2019-03-19T07:47:34.796Z,55.40
2019-03-19T07:50:02.499Z,54.40
2019-03-19T07:52:30.094Z,54.20
2019-03-19T07:54:57.577Z,54.10
2019-03-19T07:57:26.045Z,53.30
2019-03-19T07:59:53.418Z,51.80
2019-03-19T08:02:21.116Z,51.00
2019-03-19T08:04:48.638Z,50.30
2019-03-19T08:07:16.059Z,48.30
2019-03-19T08:09:43.552Z,48.00
2019-03-19T08:12:11.800Z,47.20
2019-03-19T08:14:39.507Z,45.10
2019-03-19T08:17:06.968Z,44.30
2019-03-19T08:19:34.471Z,43.60
2019-03-19T08:22:01.779Z,43.00
2019-03-19T08:24:30.464Z,42.80
2019-03-19T08:26:57.996Z,42.50
2019-03-19T08:29:25.459Z,42.70
2019-03-19T08:31:52.803Z,42.50
2019-03-19T08:34:20.438Z,41.90
2019-03-19T08:36:49.001Z,41.40
2019-03-19T08:39:16.481Z,40.50
2019-03-19T08:41:43.965Z,39.40
2019-03-19T08:44:11.256Z,39.50
2019-03-19T08:46:38.619Z,40.00
2019-03-19T08:49:06.292Z,40.90
2019-03-19T08:51:33.731Z,42.90
2019-03-19T08:54:01.272Z,44.30
2019-03-19T08:56:28.814Z,45.00
2019-03-19T08:59:05.623Z,43.60
2019-03-19T09:01:25.647Z,43.70
2019-03-19T09:03:53.023Z,43.00
2019-03-19T09:06:20.663Z,43.40
2019-03-19T09:08:50.293Z,44.20
2019-03-19T09:11:17.817Z,45.60
2019-03-19T09:13:45.420Z,46.80
2019-03-19T09:16:13.178Z,47.20
2019-03-19T09:18:40.629Z,47.40
2019-03-19T09:21:08.218Z,46.80
2019-03-19T09:23:35.715Z,46.70
2019-03-19T09:26:03.146Z,47.10
2019-03-19T09:28:30.660Z,48.10
2019-03-19T09:30:58.232Z,49.10
2019-03-19T09:33:25.740Z,50.20
2019-03-19T09:35:53.245Z,50.80
2019-03-19T09:38:20.897Z,50.10
2019-03-19T09:40:48.404Z,49.40
2019-03-19T09:43:16.907Z,47.60
2019-03-19T09:45:44.472Z,46.00
2019-03-19T09:48:11.805Z,45.40
2019-03-19T09:50:39.389Z,42.00
2019-03-19T09:53:06.957Z,38.40
2019-03-19T09:55:34.638Z,36.10
2019-03-19T09:58:02.221Z,33.80
2019-03-19T10:00:29.749Z,31.90
2019-03-19T10:02:57.234Z,31.20
2019-03-19T10:05:24.873Z,30.90
2019-03-19T10:07:52.656Z,31.60
2019-03-19T10:10:20.257Z,33.40
2019-03-19T10:12:47.993Z,35.10
2019-03-19T10:15:16.161Z,36.70
2019-03-19T10:17:43.793Z,34.70
2019-03-19T10:20:12.622Z,31.40
2019-03-19T10:22:40.312Z,29.30
2019-03-19T10:25:08.853Z,28.70
2019-03-19T10:27:36.656Z,29.70
2019-03-19T10:30:08.959Z,32.10
2019-03-19T10:32:36.577Z,34.20
2019-03-19T10:35:04.675Z,36.90
2019-03-19T10:37:32.101Z,39.20
2019-03-19T10:39:59.667Z,40.80
2019-03-19T10:42:27.059Z,42.50
2019-03-19T10:44:54.614Z,43.70
2019-03-19T10:47:22.206Z,44.60
2019-03-19T10:49:49.671Z,44.80
2019-03-19T10:52:17.030Z,44.90
2019-03-19T10:54:45.621Z,44.40
2019-03-19T10:57:13.137Z,44.60
2019-03-19T10:59:48.920Z,45.10
2019-03-19T11:02:10.021Z,45.50
2019-03-19T11:04:37.738Z,44.50
2019-03-19T11:07:06.268Z,42.70
2019-03-19T11:09:33.594Z,41.20
2019-03-19T11:12:00.886Z,40.20
2019-03-19T11:14:28.472Z,40.50
2019-03-19T11:16:56.141Z,41.00
2019-03-19T11:19:23.915Z,42.10
2019-03-19T11:21:51.594Z,43.40
2019-03-19T11:24:19.293Z,44.80
2019-03-19T11:26:47.035Z,44.70
2019-03-19T11:29:14.556Z,41.50
2019-03-19T11:31:42.013Z,36.50
2019-03-19T11:34:09.582Z,33.60
2019-03-19T11:36:37.184Z,31.70
2019-03-19T11:39:07.909Z,31.90
2019-03-19T11:41:35.527Z,33.00
2019-03-19T11:44:04.365Z,34.50
2019-03-19T11:46:31.821Z,36.00
2019-03-19T11:48:59.538Z,38.10
2019-03-19T11:51:27.437Z,39.40
2019-03-19T11:53:54.912Z,41.20
2019-03-19T11:56:25.214Z,42.30
2019-03-19T11:58:55.731Z,43.50
2019-03-19T12:01:23.387Z,44.40
2019-03-19T12:03:51.151Z,45.00
2019-03-19T12:06:19.031Z,44.40
2019-03-19T12:08:46.680Z,44.30
2019-03-19T12:11:14.186Z,44.80
2019-03-19T12:13:41.796Z,45.10
2019-03-19T12:16:09.505Z,45.00
2019-03-19T12:18:37.679Z,44.50
2019-03-19T12:21:05.321Z,43.90
2019-03-19T12:23:32.926Z,42.50
2019-03-19T12:26:00.830Z,40.70
2019-03-19T12:28:39.017Z,39.00
2019-03-19T12:30:58.092Z,37.80
2019-03-19T12:33:26.681Z,36.80
2019-03-19T12:35:54.394Z,36.70
2019-03-19T12:38:21.935Z,37.20
2019-03-19T12:40:49.315Z,38.10
2019-03-19T12:43:17.007Z,39.70
2019-03-19T12:45:44.664Z,40.30
2019-03-19T12:48:12.252Z,40.20
2019-03-19T12:50:39.830Z,40.60
2019-03-19T12:53:07.436Z,40.10
2019-03-19T12:55:35.010Z,38.00
2019-03-19T12:58:02.875Z,34.60
2019-03-19T13:00:34.549Z,30.80
2019-03-19T13:03:01.146Z,28.50
2019-03-19T13:05:28.956Z,27.10
2019-03-19T13:07:56.567Z,26.70
2019-03-19T13:10:24.257Z,26.30
2019-03-19T13:12:52.603Z,27.20
2019-03-19T13:15:25.009Z,28.70
2019-03-19T13:17:52.760Z,29.90
2019-03-19T13:20:20.157Z,32.70
2019-03-19T13:22:47.814Z,33.90
2019-03-19T13:25:16.262Z,35.90
2019-03-19T13:27:44.007Z,37.40
2019-03-19T13:30:14.617Z,38.20
2019-03-19T13:32:42.294Z,38.90
2019-03-19T13:35:09.959Z,40.00
2019-03-19T13:37:37.623Z,40.50
2019-03-19T13:40:05.380Z,41.30
2019-03-19T13:42:33.002Z,42.10
2019-03-19T13:45:00.861Z,42.50
2019-03-19T13:47:28.392Z,42.50
2019-03-19T13:49:57.042Z,42.80
2019-03-19T13:52:24.488Z,43.20
2019-03-19T13:54:52.192Z,43.20
2019-03-19T13:57:19.741Z,43.60
2019-03-19T13:59:47.265Z,43.80
2019-03-19T14:02:14.968Z,44.00
2019-03-19T14:04:43.076Z,44.70
2019-03-19T14:07:10.577Z,45.40
2019-03-19T14:09:38.450Z,44.60
2019-03-19T14:12:06.889Z,44.70
2019-03-19T14:15:05.064Z,44.80
2019-03-19T14:17:33.050Z,44.90
2019-03-19T14:20:04.435Z,45.50
2019-03-19T14:22:32.225Z,45.70
2019-03-19T14:24:59.929Z,45.80
2019-03-19T14:27:28.279Z,45.90
2019-03-19T14:29:56.310Z,45.50
2019-03-19T14:32:23.771Z,45.40
2019-03-19T14:34:51.319Z,45.40
2019-03-19T14:37:19.031Z,45.60
2019-03-19T14:39:46.555Z,46.20
2019-03-19T14:42:13.876Z,46.90
2019-03-19T14:44:41.559Z,48.00
2019-03-19T14:47:09.212Z,48.10
2019-03-19T14:49:46.369Z,48.40
2019-03-19T14:52:06.249Z,48.90
2019-03-19T14:54:33.723Z,48.80
2019-03-19T14:57:01.209Z,48.70
2019-03-19T14:59:28.904Z,48.00
2019-03-19T15:01:56.877Z,47.60
2019-03-19T15:04:26.045Z,47.30
2019-03-19T15:06:53.574Z,47.30
2019-03-19T15:09:22.434Z,47.60
2019-03-19T15:11:53.324Z,47.60
2019-03-19T15:14:20.990Z,47.80
2019-03-19T15:16:48.537Z,48.10
2019-03-19T15:19:16.491Z,48.20
2019-03-19T15:21:44.066Z,48.30
2019-03-19T15:24:11.563Z,48.50
2019-03-19T15:26:39.059Z,48.70
2019-03-19T15:29:06.470Z,49.30
2019-03-19T15:31:34.121Z,48.70
2019-03-19T15:34:02.257Z,48.50
2019-03-19T15:36:29.602Z,48.40
2019-03-19T15:38:57.892Z,48.80
2019-03-19T15:41:25.599Z,48.50
2019-03-19T15:43:52.965Z,48.60
2019-03-19T15:46:21.279Z,49.10
2019-03-19T15:48:49.437Z,49.50
2019-03-19T15:51:17.035Z,49.30
2019-03-19T15:53:44.483Z,49.60
2019-03-19T15:56:12.077Z,50.50
2019-03-19T15:58:39.543Z,50.90
2019-03-19T16:01:07.402Z,51.50
2019-03-19T16:03:35.203Z,52.50
2019-03-19T16:06:02.936Z,52.50
2019-03-19T16:08:31.460Z,53.00
2019-03-19T16:11:03.103Z,53.90
2019-03-19T16:13:31.089Z,53.70
2019-03-19T16:15:58.692Z,54.20
2019-03-19T16:18:26.235Z,54.60
2019-03-19T16:20:54.744Z,54.70
2019-03-19T16:23:24.018Z,55.50
2019-03-19T16:25:52.451Z,55.60
2019-03-19T16:28:21.695Z,55.90
2019-03-19T16:30:49.830Z,56.20
2019-03-19T16:33:17.458Z,56.30
2019-03-19T16:35:44.961Z,56.90
2019-03-19T16:38:12.958Z,57.10
2019-03-19T16:40:41.743Z,57.10
2019-03-19T16:43:09.326Z,57.50
2019-03-19T16:45:36.980Z,57.70
2019-03-19T16:48:04.743Z,58.00
2019-03-19T16:50:32.497Z,58.70
2019-03-19T16:53:00.247Z,59.80
2019-03-19T16:55:28.528Z,60.80
2019-03-19T16:57:56.119Z,61.20
2019-03-19T17:00:23.573Z,62.00
2019-03-19T17:02:51.065Z,62.70
2019-03-19T17:05:18.862Z,63.10
2019-03-19T17:07:47.266Z,63.20
2019-03-19T17:10:16.434Z,63.80
2019-03-19T17:12:44.347Z,64.10
2019-03-19T17:15:14.263Z,64.80
2019-03-19T17:17:41.720Z,65.40
2019-03-19T17:20:10.811Z,65.70
2019-03-19T17:22:39.219Z,66.50
2019-03-19T17:25:09.248Z,67.30
2019-03-19T17:27:37.964Z,68.00
2019-03-19T17:30:12.914Z,69.10
2019-03-19T17:32:42.453Z,69.10
2019-03-19T17:35:10.255Z,69.90
2019-03-19T17:37:39.874Z,70.50
2019-03-19T17:40:08.429Z,70.90
2019-03-19T17:42:37.403Z,71.20
2019-03-19T17:45:05.601Z,71.50
2019-03-19T17:47:33.832Z,71.80
2019-03-19T17:50:01.411Z,71.60
2019-03-19T17:52:29.167Z,71.70
2019-03-19T17:54:56.621Z,72.20
2019-03-19T17:57:26.224Z,72.00
2019-03-19T17:59:53.985Z,72.30
2019-03-19T18:02:57.004Z,73.60
2019-03-19T18:05:24.865Z,74.20
2019-03-19T18:07:52.540Z,75.30
2019-03-19T18:10:20.378Z,75.60
2019-03-19T18:12:51.263Z,76.40
2019-03-19T18:15:19.132Z,77.60
2019-03-19T18:17:47.120Z,78.60
2019-03-19T18:20:15.013Z,79.00
2019-03-19T18:22:43.017Z,79.50
2019-03-19T18:25:11.479Z,79.90
2019-03-19T18:27:39.067Z,80.50
2019-03-19T18:30:08.894Z,81.30
2019-03-19T18:32:36.741Z,81.90
2019-03-19T18:35:05.029Z,82.30
2019-03-19T18:37:32.675Z,83.00
2019-03-19T18:40:00.174Z,84.30
2019-03-19T18:42:27.686Z,85.80
2019-03-19T18:44:55.194Z,85.90
2019-03-19T18:47:22.753Z,85.80
2019-03-19T18:49:50.374Z,86.20
2019-03-19T18:52:18.227Z,86.50
2019-03-19T18:54:46.121Z,86.80
2019-03-19T18:57:13.772Z,87.70
2019-03-19T18:59:41.367Z,88.00
2019-03-19T19:02:09.229Z,87.90
2019-03-19T19:04:36.648Z,88.10
2019-03-19T19:07:05.221Z,88.90
2019-03-19T19:09:32.700Z,88.70
2019-03-19T19:12:00.324Z,88.20
2019-03-19T19:14:28.762Z,88.60
2019-03-19T19:16:56.835Z,89.50
2019-03-19T19:19:24.746Z,90.10
2019-03-19T19:21:53.009Z,90.20
2019-03-19T19:24:20.790Z,90.30
2019-03-19T19:26:48.401Z,90.30
2019-03-19T19:29:16.554Z,90.50
2019-03-19T19:31:44.451Z,90.70
2019-03-19T19:34:15.195Z,91.00
2019-03-19T19:36:43.074Z,91.20
2019-03-19T19:39:10.668Z,91.80
2019-03-19T19:41:38.306Z,91.70
2019-03-19T19:44:07.413Z,91.80
2019-03-19T19:46:34.882Z,92.00
2019-03-19T19:49:02.645Z,92.10
2019-03-19T19:51:30.261Z,92.30
2019-03-19T19:53:57.643Z,92.40
2019-03-19T19:56:25.113Z,92.50
2019-03-19T19:58:53.550Z,92.60
2019-03-19T20:01:22.094Z,92.70
2019-03-19T20:03:49.749Z,92.70
2019-03-19T20:06:17.484Z,92.70
2019-03-19T20:09:10.808Z,92.80
2019-03-19T20:11:38.752Z,92.80
2019-03-19T20:14:07.144Z,92.90
2019-03-19T20:16:34.675Z,93.10
2019-03-19T20:19:02.301Z,93.10
2019-03-19T20:21:30.963Z,93.40
2019-03-19T20:23:58.651Z,93.70
2019-03-19T20:26:26.137Z,93.60
2019-03-19T20:28:53.766Z,93.80
2019-03-19T20:31:21.519Z,93.90
2019-03-19T20:33:48.993Z,94.00
2019-03-19T20:36:16.411Z,94.10
2019-03-19T20:38:43.845Z,94.40
2019-03-19T20:41:11.508Z,94.50
2019-03-19T20:43:39.201Z,94.60
2019-03-19T20:46:07.069Z,94.80
2019-03-19T20:48:35.980Z,95.20
2019-03-19T20:51:03.676Z,95.20
2019-03-19T20:53:31.523Z,95.20
2019-03-19T20:55:59.097Z,95.20
2019-03-19T20:58:26.656Z,95.30
2019-03-19T21:00:54.154Z,95.40
2019-03-19T21:03:21.716Z,95.40
2019-03-19T21:05:49.436Z,95.50
2019-03-19T21:08:17.208Z,95.80
2019-03-19T21:10:44.634Z,95.70
2019-03-19T21:13:12.318Z,95.70
2019-03-19T21:15:40.003Z,95.80
2019-03-19T21:18:07.607Z,95.80
2019-03-19T21:20:35.097Z,95.70
2019-03-19T21:23:02.567Z,95.90
2019-03-19T21:25:29.996Z,96.00
2019-03-19T21:27:59.576Z,96.10
2019-03-19T21:30:27.235Z,96.10
2019-03-19T21:32:54.713Z,96.20
2019-03-19T21:35:23.659Z,96.40
2019-03-19T21:37:51.747Z,96.40
2019-03-19T21:40:19.650Z,96.50
2019-03-19T21:42:47.253Z,96.50
2019-03-19T21:45:15.028Z,96.50
2019-03-19T21:47:42.538Z,96.70
2019-03-19T21:50:11.948Z,96.70
2019-03-19T21:52:39.535Z,96.80
2019-03-19T21:55:07.479Z,97.10
2019-03-19T21:57:35.212Z,97.20
2019-03-19T22:00:05.232Z,97.40
2019-03-19T22:02:34.593Z,97.30
2019-03-19T22:05:03.534Z,97.40
2019-03-19T22:07:31.447Z,97.40
2019-03-19T22:09:58.946Z,97.50
2019-03-19T22:12:26.368Z,97.50
2019-03-19T22:14:55.969Z,97.40
2019-03-19T22:17:24.759Z,97.40
2019-03-19T22:19:52.419Z,97.50
2019-03-19T22:22:20.091Z,97.60
2019-03-19T22:24:47.539Z,97.80
2019-03-19T22:27:15.032Z,97.80
2019-03-19T22:29:42.873Z,97.90
2019-03-19T22:32:10.367Z,97.80
2019-03-19T22:34:38.089Z,97.80
2019-03-19T22:37:06.119Z,97.80
2019-03-19T22:39:35.189Z,97.80
2019-03-19T22:42:03.195Z,97.80
2019-03-19T22:44:31.341Z,97.80
2019-03-19T22:46:59.363Z,97.90
2019-03-19T22:49:27.438Z,98.00
2019-03-19T22:51:55.544Z,97.90
2019-03-19T22:54:23.581Z,98.00
2019-03-19T22:56:51.549Z,98.10
2019-03-19T22:59:19.587Z,98.10
2019-03-19T23:01:47.606Z,98.20
2019-03-19T23:04:26.747Z,98.20
2019-03-19T23:06:45.704Z,98.10
2019-03-19T23:09:13.850Z,98.20
2019-03-19T23:11:41.994Z,98.20
2019-03-19T23:14:09.988Z,98.30
2019-03-19T23:16:38.029Z,98.20
2019-03-19T23:19:06.105Z,98.30
2019-03-19T23:21:34.281Z,98.30
2019-03-19T23:24:02.367Z,98.30
2019-03-19T23:26:30.519Z,98.40
2019-03-19T23:28:58.492Z,98.40
2019-03-19T23:31:27.087Z,98.50
2019-03-19T23:33:54.661Z,98.50
2019-03-19T23:36:22.267Z,98.50
2019-03-19T23:38:49.861Z,98.60
2019-03-19T23:41:17.235Z,98.50
2019-03-19T23:43:44.713Z,98.80
2019-03-19T23:46:12.383Z,98.50
2019-03-19T23:48:39.981Z,98.70
2019-03-19T23:51:07.528Z,98.70
2019-03-19T23:53:35.235Z,98.60
2019-03-19T23:56:02.979Z,98.60
2019-03-19T23:58:30.554Z,98.50
